createdAt,value
2024-02-03T00:02:23.887Z,99740.66
2024-02-03T00:04:52.237Z,99732.42
2024-02-03T00:07:20.805Z,99718.86
2024-02-03T00:09:49.357Z,99713.56
2024-02-03T00:12:21.048Z,99712.54
2024-02-03T00:14:49.514Z,99702.02
2024-02-03T00:17:17.678Z,99702.66
2024-02-03T00:19:46.167Z,99697.60
2024-02-03T00:22:15.327Z,99699.45
2024-02-03T00:24:43.796Z,99699.59
2024-02-03T00:27:12.041Z,99705.75
2024-02-03T00:29:40.157Z,99697.85
2024-02-03T00:32:08.453Z,99691.71
2024-02-03T00:34:36.923Z,99696.53
2024-02-03T00:37:05.625Z,99692.25
2024-02-03T00:39:33.796Z,99688.48
2024-02-03T00:42:02.010Z,99680.90
2024-02-03T00:44:30.219Z,99673.27
2024-02-03T00:46:58.438Z,99673.55
2024-02-03T00:49:26.753Z,99672.59
2024-02-03T00:51:55.970Z,99683.14
2024-02-03T00:54:24.554Z,99683.77
2024-02-03T00:56:52.716Z,99685.92
2024-02-03T00:59:21.187Z,99680.90
2024-02-03T01:01:49.432Z,99682.24
2024-02-03T01:04:18.196Z,99673.77
2024-02-03T01:06:46.518Z,99662.02
2024-02-03T01:09:19.044Z,99657.51
2024-02-03T01:11:47.485Z,99654.75
2024-02-03T01:14:15.594Z,99649.06
2024-02-03T01:16:45.575Z,99655.75
2024-02-03T01:19:13.862Z,99656.73
2024-02-03T01:21:42.665Z,99655.65
2024-02-03T01:24:10.964Z,99644.95
2024-02-03T01:26:39.128Z,99646.05
2024-02-03T01:29:07.474Z,99651.21
2024-02-03T01:31:35.654Z,99652.52
2024-02-03T01:34:04.074Z,99648.33
2024-02-03T01:36:32.619Z,99649.32
2024-02-03T01:39:00.885Z,99655.98
2024-02-03T01:41:29.149Z,99656.27
2024-02-03T01:43:57.628Z,99652.08
2024-02-03T01:46:26.008Z,99657.98
2024-02-03T01:48:54.595Z,99655.12
2024-02-03T01:51:24.826Z,99658.67
2024-02-03T01:53:54.349Z,99663.30
2024-02-03T01:56:23.308Z,99659.80
2024-02-03T01:58:51.492Z,99653.90
2024-02-03T02:01:20.002Z,99652.27
2024-02-03T02:03:48.345Z,99651.27
2024-02-03T02:06:16.603Z,99650.93
2024-02-03T02:08:44.906Z,99648.63
2024-02-03T02:11:13.806Z,99646.05
2024-02-03T02:13:41.965Z,99645.41
2024-02-03T02:16:10.233Z,99633.45
2024-02-03T02:18:38.852Z,99631.99
2024-02-03T02:21:07.118Z,99633.99
2024-02-03T02:23:35.477Z,99629.96
2024-02-03T02:26:04.362Z,99628.67
2024-02-03T02:28:33.576Z,99628.70
2024-02-03T02:31:01.739Z,99624.59
2024-02-03T02:33:30.049Z,99625.61
2024-02-03T02:35:58.211Z,99625.56
2024-02-03T02:38:26.465Z,99619.15
2024-02-03T02:40:54.698Z,99611.33
2024-02-03T02:43:23.421Z,99606.77
2024-02-03T02:45:51.670Z,99601.70
2024-02-03T02:48:20.293Z,99602.52
2024-02-03T02:50:48.769Z,99603.45
2024-02-03T02:53:16.828Z,99600.41
2024-02-03T02:55:45.422Z,99596.87
2024-02-03T02:58:13.606Z,99595.23
2024-02-03T03:00:41.984Z,99588.56
2024-02-03T03:03:10.198Z,99584.45
2024-02-03T03:05:38.515Z,99581.94
2024-02-03T03:08:06.689Z,99576.27
2024-02-03T03:10:34.964Z,99586.38
2024-02-03T03:13:03.475Z,99595.64
2024-02-03T03:15:31.631Z,99584.23
2024-02-03T03:18:00.107Z,99587.48
2024-02-03T03:20:28.494Z,99589.54
2024-02-03T03:22:56.903Z,99591.56
2024-02-03T03:25:25.047Z,99588.28
2024-02-03T03:27:53.316Z,99590.17
2024-02-03T03:30:21.515Z,99589.48
2024-02-03T03:32:52.188Z,99591.88
2024-02-03T03:35:21.161Z,99589.13
2024-02-03T03:37:49.314Z,99597.14
2024-02-03T03:40:17.450Z,99600.14
2024-02-03T03:42:49.344Z,99603.36
2024-02-03T03:45:20.806Z,99601.79
2024-02-03T03:47:49.093Z,99604.67
2024-02-03T03:50:17.320Z,99614.08
2024-02-03T03:52:45.687Z,99605.63
2024-02-03T03:55:13.912Z,99603.20
2024-02-03T03:57:42.341Z,99595.43
2024-02-03T04:00:12.509Z,99589.45
2024-02-03T04:02:41.151Z,99592.23
2024-02-03T04:05:09.938Z,99586.95
2024-02-03T04:07:38.119Z,99586.34
2024-02-03T04:10:06.832Z,99580.88
2024-02-03T04:12:35.093Z,99595.91
2024-02-03T04:15:03.494Z,99593.52
2024-02-03T04:17:31.838Z,99587.89
2024-02-03T04:20:00.144Z,99584.17
2024-02-03T04:22:28.685Z,99581.64
2024-02-03T04:24:57.208Z,99583.70
2024-02-03T04:27:25.679Z,99588.51
2024-02-03T04:29:53.835Z,99591.79
2024-02-03T04:32:22.118Z,99588.91
2024-02-03T04:34:50.203Z,99583.02
2024-02-03T04:37:18.801Z,99582.14
2024-02-03T04:39:47.062Z,99581.77
2024-02-03T04:42:15.789Z,99583.55
2024-02-03T04:44:43.983Z,99583.81
2024-02-03T04:47:12.432Z,99593.76
2024-02-03T04:49:40.726Z,99591.52
2024-02-03T04:52:09.226Z,99589.03
2024-02-03T04:54:37.603Z,99589.97
2024-02-03T04:57:06.396Z,99596.05
2024-02-03T04:59:34.434Z,99594.93
2024-02-03T05:02:02.572Z,99592.77
2024-02-03T05:04:30.824Z,99571.51
2024-02-03T05:06:59.153Z,99564.73
2024-02-03T05:09:27.700Z,99564.07
2024-02-03T05:11:56.175Z,99561.61
2024-02-03T05:14:24.323Z,99559.48
2024-02-03T05:16:52.710Z,99565.77
2024-02-03T05:19:20.948Z,99567.35
2024-02-03T05:21:49.286Z,99565.86
2024-02-03T05:24:17.716Z,99564.52
2024-02-03T05:26:46.023Z,99562.32
2024-02-03T05:29:14.330Z,99565.42
2024-02-03T05:31:42.453Z,99562.45
2024-02-03T05:34:10.670Z,99561.00
2024-02-03T05:36:38.963Z,99558.38
2024-02-03T05:39:08.314Z,99562.63
2024-02-03T05:41:36.554Z,99566.70
2024-02-03T05:44:05.017Z,99575.03
2024-02-03T05:46:33.240Z,99580.81
2024-02-03T05:49:01.464Z,99588.27
2024-02-03T05:51:29.930Z,99589.27
2024-02-03T05:54:01.060Z,99598.67
2024-02-03T05:56:29.303Z,99597.08
2024-02-03T05:59:13.697Z,99602.59
2024-02-03T06:01:45.991Z,99616.04
2024-02-03T06:04:14.086Z,99612.66
2024-02-03T06:06:42.395Z,99615.79
2024-02-03T06:09:10.597Z,99611.14
2024-02-03T06:11:38.627Z,99611.10
2024-02-03T06:14:06.739Z,99599.75
2024-02-03T06:16:34.984Z,99606.50
2024-02-03T06:19:03.672Z,99609.31
2024-02-03T06:21:32.092Z,99611.55
2024-02-03T06:24:00.337Z,99625.51
2024-02-03T06:26:32.871Z,99633.09
2024-02-03T06:29:01.163Z,99621.11
2024-02-03T06:31:29.386Z,99624.98
2024-02-03T06:33:57.803Z,99617.80
2024-02-03T06:36:26.032Z,99617.32
2024-02-03T06:38:54.370Z,99619.45
2024-02-03T06:41:23.161Z,99618.82
2024-02-03T06:43:52.277Z,99606.90
2024-02-03T06:46:20.543Z,99593.73
2024-02-03T06:48:48.834Z,99590.34
2024-02-03T06:51:17.188Z,99606.39
2024-02-03T06:53:45.476Z,99610.52
2024-02-03T06:56:13.746Z,99621.41
2024-02-03T06:58:42.056Z,99617.67
2024-02-03T07:01:10.231Z,99610.75
2024-02-03T07:03:38.808Z,99609.10
2024-02-03T07:06:08.011Z,99606.90
2024-02-03T07:08:36.172Z,99611.43
2024-02-03T07:11:04.535Z,99614.01
2024-02-03T07:13:32.825Z,99626.79
2024-02-03T07:16:01.200Z,99640.45
2024-02-03T07:18:29.488Z,99644.88
2024-02-03T07:20:58.239Z,99643.48
2024-02-03T07:23:26.511Z,99652.04
2024-02-03T07:25:54.698Z,99649.42
2024-02-03T07:28:22.859Z,99651.52
2024-02-03T07:30:51.060Z,99641.38
2024-02-03T07:33:19.526Z,99637.70
2024-02-03T07:35:47.835Z,99641.98
2024-02-03T07:38:16.111Z,99635.22
2024-02-03T07:40:44.245Z,99628.33
2024-02-03T07:43:12.207Z,99630.23
2024-02-03T07:45:40.163Z,99641.16
2024-02-03T07:48:08.554Z,99651.48
2024-02-03T07:50:36.616Z,99649.41
2024-02-03T07:53:04.641Z,99658.55
2024-02-03T07:55:32.583Z,99656.61
2024-02-03T07:58:00.566Z,99658.81
2024-02-03T08:00:28.953Z,99662.36
2024-02-03T08:02:57.084Z,99660.45
2024-02-03T08:05:25.599Z,99654.23
2024-02-03T08:07:54.656Z,99651.61
2024-02-03T08:10:24.178Z,99653.81
2024-02-03T08:12:52.261Z,99653.25
2024-02-03T08:15:21.044Z,99654.98
2024-02-03T08:17:49.238Z,99659.61
2024-02-03T08:20:17.536Z,99660.35
2024-02-03T08:22:45.771Z,99656.08
2024-02-03T08:25:14.041Z,99655.92
2024-02-03T08:27:42.242Z,99661.58
2024-02-03T08:30:11.590Z,99662.03
2024-02-03T08:32:39.812Z,99658.75
2024-02-03T08:37:39.727Z,99655.80
2024-02-03T08:40:08.600Z,99652.37
2024-02-03T08:42:36.789Z,99653.25
2024-02-03T08:45:05.584Z,99653.00
2024-02-03T08:47:33.661Z,99653.48
2024-02-03T08:50:02.623Z,99660.08
2024-02-03T08:52:30.715Z,99659.49
2024-02-03T08:55:00.136Z,99660.19
2024-02-03T08:57:28.647Z,99662.34
2024-02-03T08:59:57.061Z,99670.14
2024-02-03T09:02:25.346Z,99670.09
2024-02-03T09:04:54.109Z,99670.14
2024-02-03T09:07:22.229Z,99669.65
2024-02-03T09:09:50.470Z,99668.15
2024-02-03T09:12:18.921Z,99672.66
2024-02-03T09:14:47.438Z,99677.14
2024-02-03T09:17:15.536Z,99677.86
2024-02-03T09:19:43.918Z,99676.55
2024-02-03T09:22:12.154Z,99675.70
2024-02-03T09:24:41.019Z,99679.41
2024-02-03T09:27:09.322Z,99676.09
2024-02-03T09:29:44.222Z,99685.43
2024-02-03T09:32:12.321Z,99686.71
2024-02-03T09:34:47.360Z,99689.78
2024-02-03T09:39:47.299Z,99678.20
2024-02-03T09:42:16.771Z,99671.17
2024-02-03T09:44:46.197Z,99671.30
2024-02-03T09:47:17.742Z,99658.34
2024-02-03T09:49:46.350Z,99647.87
2024-02-03T09:52:16.468Z,99644.77
2024-02-03T09:54:48.948Z,99641.42
2024-02-03T09:57:17.559Z,99642.75
2024-02-03T09:59:52.104Z,99639.65
2024-02-03T10:02:20.611Z,99635.51
2024-02-03T10:04:49.352Z,99637.17
2024-02-03T10:07:20.881Z,99636.95
2024-02-03T10:12:22.911Z,99641.46
2024-02-03T10:15:02.148Z,99643.92
2024-02-03T10:17:30.255Z,99649.11
2024-02-03T10:19:59.494Z,99667.61
2024-02-03T10:22:28.323Z,99670.75
2024-02-03T10:25:07.637Z,99681.25
2024-02-03T10:27:35.861Z,99676.91
2024-02-03T10:30:04.337Z,99678.04
2024-02-03T10:32:32.657Z,99674.52
2024-02-03T10:35:02.361Z,99665.80
2024-02-03T10:37:30.694Z,99660.98
2024-02-03T10:39:59.453Z,99661.05
2024-02-03T10:42:32.331Z,99667.55
2024-02-03T10:45:03.345Z,99664.14
2024-02-03T10:47:33.623Z,99662.93
2024-02-03T10:50:05.611Z,99668.05
2024-02-03T10:52:34.775Z,99665.64
2024-02-03T10:55:04.863Z,99665.67
2024-02-03T10:57:33.257Z,99660.38
2024-02-03T11:00:06.229Z,99662.43
2024-02-03T11:02:35.676Z,99664.41
2024-02-03T11:05:03.990Z,99665.27
2024-02-03T11:07:32.859Z,99678.80
2024-02-03T11:10:05.599Z,99677.86
2024-02-03T11:12:38.332Z,99678.73
2024-02-03T11:15:16.210Z,99675.66
2024-02-03T11:17:45.750Z,99681.14
2024-02-03T11:20:21.626Z,99689.14
2024-02-03T11:22:54.287Z,99684.23
2024-02-03T11:25:22.399Z,99688.92
2024-02-03T11:27:52.980Z,99683.48
2024-02-03T11:30:21.235Z,99685.05
2024-02-03T11:32:49.485Z,99685.01
2024-02-03T11:35:19.038Z,99680.88
2024-02-03T11:37:47.565Z,99681.74
2024-02-03T11:40:16.193Z,99680.85
2024-02-03T11:42:45.094Z,99682.73
2024-02-03T11:45:16.428Z,99670.14
2024-02-03T11:47:45.042Z,99674.08
2024-02-03T11:50:13.066Z,99681.48
2024-02-03T11:52:47.744Z,99667.61
2024-02-03T11:55:16.045Z,99665.69
2024-02-03T11:57:44.289Z,99674.39
2024-02-03T12:00:14.643Z,99680.31
2024-02-03T12:02:43.134Z,99676.00
2024-02-03T12:05:14.561Z,99673.59
2024-02-03T12:07:43.855Z,99670.92
2024-02-03T12:10:14.301Z,99664.98
2024-02-03T12:12:42.532Z,99656.85
2024-02-03T12:15:12.265Z,99656.04
2024-02-03T12:17:41.537Z,99646.96
2024-02-03T12:20:26.087Z,99641.66
2024-02-03T12:22:54.514Z,99645.02
2024-02-03T12:25:23.907Z,99647.27
2024-02-03T12:27:53.647Z,99651.20
2024-02-03T12:30:23.973Z,99658.23
2024-02-03T12:32:52.492Z,99649.64
2024-02-03T12:35:20.706Z,99645.41
2024-02-03T12:37:48.862Z,99648.89
2024-02-03T12:40:16.910Z,99647.70
2024-02-03T12:42:45.123Z,99642.68
2024-02-03T12:45:13.786Z,99646.85
2024-02-03T12:47:45.799Z,99652.81
2024-02-03T12:50:14.145Z,99652.48
2024-02-03T12:52:43.288Z,99649.67
2024-02-03T12:55:11.627Z,99655.67
2024-02-03T12:57:39.935Z,99649.21
2024-02-03T13:00:09.065Z,99655.27
2024-02-03T13:02:37.683Z,99660.56
2024-02-03T13:05:06.265Z,99662.16
2024-02-03T13:07:34.544Z,99655.94
2024-02-03T13:10:02.716Z,99654.99
2024-02-03T13:12:31.733Z,99660.12
2024-02-03T13:15:00.124Z,99657.36
2024-02-03T13:17:30.386Z,99656.40
2024-02-03T13:19:59.509Z,99658.75
2024-02-03T13:22:27.840Z,99660.54
2024-02-03T13:24:56.091Z,99664.88
2024-02-03T13:27:24.531Z,99665.01
2024-02-03T13:29:53.417Z,99668.46
2024-02-03T13:32:22.023Z,99673.84
2024-02-03T13:34:50.951Z,99663.17
2024-02-03T13:37:19.561Z,99659.85
2024-02-03T13:39:47.991Z,99652.98
2024-02-03T13:42:17.553Z,99651.10
2024-02-03T13:44:45.953Z,99655.23
2024-02-03T13:47:14.025Z,99653.23
2024-02-03T13:49:42.321Z,99653.20
2024-02-03T13:52:13.985Z,99651.42
2024-02-03T13:54:42.465Z,99654.95
2024-02-03T13:57:10.647Z,99647.80
2024-02-03T13:59:38.943Z,99646.75
2024-02-03T14:02:07.565Z,99652.20
2024-02-03T14:04:35.992Z,99644.35
2024-02-03T14:07:05.352Z,99647.39
2024-02-03T14:09:33.586Z,99649.20
2024-02-03T14:12:04.894Z,99651.56
2024-02-03T14:14:33.185Z,99654.55
2024-02-03T14:17:01.429Z,99655.64
2024-02-03T14:19:29.731Z,99653.98
2024-02-03T14:21:58.315Z,99652.80
2024-02-03T14:24:26.930Z,99656.63
2024-02-03T14:26:55.306Z,99653.33
2024-02-03T14:29:23.529Z,99654.05
2024-02-03T14:31:51.588Z,99655.46
2024-02-03T14:34:19.816Z,99666.64
2024-02-03T14:36:48.609Z,99658.25
2024-02-03T14:39:20.338Z,99662.13
2024-02-03T14:41:48.988Z,99668.72
2024-02-03T14:44:18.062Z,99670.13
2024-02-03T14:46:46.570Z,99664.42
2024-02-03T14:49:15.089Z,99669.52
2024-02-03T14:51:43.940Z,99670.64
2024-02-03T14:54:13.316Z,99672.06
2024-02-03T14:56:42.056Z,99679.59
2024-02-03T14:59:10.201Z,99691.80
2024-02-03T15:01:38.482Z,99703.22
2024-02-03T15:04:08.945Z,99709.63
2024-02-03T15:06:37.931Z,99713.51
2024-02-03T15:09:09.289Z,99708.27
2024-02-03T15:11:37.654Z,99709.59
2024-02-03T15:14:06.202Z,99716.14
2024-02-03T15:16:34.393Z,99712.61
2024-02-03T15:19:02.600Z,99715.54
2024-02-03T15:21:31.379Z,99711.08
2024-02-03T15:23:59.682Z,99707.89
2024-02-03T15:26:28.100Z,99704.15
2024-02-03T15:28:56.702Z,99709.40
2024-02-03T15:31:27.039Z,99714.81
2024-02-03T15:33:55.683Z,99709.61
2024-02-03T15:36:24.264Z,99711.27
2024-02-03T15:38:52.549Z,99715.33
2024-02-03T15:41:20.882Z,99715.77
2024-02-03T15:43:49.047Z,99719.24
2024-02-03T15:46:18.111Z,99725.38
2024-02-03T15:48:46.539Z,99728.50
2024-02-03T15:51:14.830Z,99728.51
2024-02-03T15:53:43.170Z,99727.67
2024-02-03T15:56:11.717Z,99727.13
2024-02-03T15:58:40.462Z,99728.16
2024-02-03T16:01:08.756Z,99733.96
2024-02-03T16:03:37.477Z,99740.87
2024-02-03T16:06:06.338Z,99729.18
2024-02-03T16:08:34.557Z,99726.81
2024-02-03T16:11:03.216Z,99732.09
2024-02-03T16:13:31.397Z,99730.30
2024-02-03T16:16:00.259Z,99732.22
2024-02-03T16:18:28.993Z,99738.73
2024-02-03T16:20:57.144Z,99737.05
2024-02-03T16:23:25.356Z,99734.69
2024-02-03T16:25:53.621Z,99742.31
2024-02-03T16:28:21.800Z,99743.71
2024-02-03T16:30:49.971Z,99739.97
2024-02-03T16:33:18.404Z,99748.42
2024-02-03T16:35:46.713Z,99739.79
2024-02-03T16:38:15.119Z,99741.54
2024-02-03T16:40:43.396Z,99757.42
2024-02-03T16:43:11.827Z,99742.69
2024-02-03T16:45:40.531Z,99748.67
2024-02-03T16:48:09.006Z,99741.98
2024-02-03T16:50:37.187Z,99739.27
2024-02-03T16:53:05.457Z,99742.63
2024-02-03T16:55:36.081Z,99744.70
2024-02-03T16:58:04.570Z,99745.37
2024-02-03T17:00:38.614Z,99750.86
2024-02-03T17:03:10.248Z,99758.63
2024-02-03T17:05:41.899Z,99756.02
2024-02-03T17:08:12.986Z,99754.59
2024-02-03T17:10:41.448Z,99754.00
2024-02-03T17:13:09.951Z,99756.64
2024-02-03T17:15:38.456Z,99752.42
2024-02-03T17:18:07.150Z,99752.77
2024-02-03T17:20:35.305Z,99747.57
2024-02-03T17:23:03.598Z,99755.86
2024-02-03T17:25:34.762Z,99756.03
2024-02-03T17:28:03.256Z,99759.27
2024-02-03T17:30:31.768Z,99762.01
2024-02-03T17:33:00.117Z,99767.67
2024-02-03T17:35:28.661Z,99771.46
2024-02-03T17:37:56.934Z,99770.54
2024-02-03T17:40:25.127Z,99775.54
2024-02-03T17:42:53.400Z,99776.08
2024-02-03T17:45:24.571Z,99777.20
2024-02-03T17:47:53.462Z,99778.70
2024-02-03T17:50:21.686Z,99771.60
2024-02-03T17:52:49.985Z,99774.08
2024-02-03T17:55:18.446Z,99772.25
2024-02-03T17:57:47.297Z,99774.02
2024-02-03T18:00:16.399Z,99775.29
2024-02-03T18:02:44.731Z,99775.56
2024-02-03T18:05:13.226Z,99781.68
2024-02-03T18:07:41.399Z,99781.52
2024-02-03T18:10:10.392Z,99781.09
2024-02-03T18:12:38.673Z,99787.46
2024-02-03T18:15:08.138Z,99784.85
2024-02-03T18:17:36.661Z,99784.20
2024-02-03T18:20:05.430Z,99789.93
2024-02-03T18:22:33.790Z,99789.54
2024-02-03T18:25:02.662Z,99792.94
2024-02-03T18:27:30.964Z,99795.10
2024-02-03T18:29:59.129Z,99798.74
2024-02-03T18:32:27.716Z,99802.18
2024-02-03T18:34:55.878Z,99806.75
2024-02-03T18:37:24.155Z,99808.53
2024-02-03T18:39:54.037Z,99805.49
2024-02-03T18:42:24.712Z,99806.02
2024-02-03T18:44:53.080Z,99801.17
2024-02-03T18:47:21.492Z,99804.14
2024-02-03T18:49:49.786Z,99805.30
2024-02-03T18:52:18.116Z,99807.15
2024-02-03T18:54:46.526Z,99797.47
2024-02-03T18:57:15.080Z,99797.60
2024-02-03T18:59:43.146Z,99795.23
2024-02-03T19:02:11.215Z,99793.17
2024-02-03T19:04:39.369Z,99786.61
2024-02-03T19:07:07.559Z,99788.47
2024-02-03T19:09:38.010Z,99789.58
2024-02-03T19:12:09.426Z,99788.20
2024-02-03T19:14:38.862Z,99790.96
2024-02-03T19:17:07.125Z,99785.27
2024-02-03T19:19:37.463Z,99787.58
2024-02-03T19:22:05.844Z,99779.77
2024-02-03T19:24:34.256Z,99786.98
2024-02-03T19:27:02.582Z,99777.77
2024-02-03T19:29:30.785Z,99781.50
2024-02-03T19:31:58.920Z,99784.12
2024-02-03T19:34:28.300Z,99787.33
2024-02-03T19:36:57.673Z,99788.45
2024-02-03T19:39:26.854Z,99789.70
2024-02-03T19:41:54.990Z,99790.19
2024-02-03T19:44:23.078Z,99789.55
2024-02-03T19:46:51.437Z,99786.50
2024-02-03T19:49:20.658Z,99790.73
2024-02-03T19:51:49.419Z,99789.94
2024-02-03T19:54:18.248Z,99786.91
2024-02-03T19:56:46.697Z,99787.34
2024-02-03T19:59:14.969Z,99789.59
2024-02-03T20:01:43.445Z,99794.36
2024-02-03T20:04:12.022Z,99794.02
2024-02-03T20:06:40.402Z,99787.57
2024-02-03T20:09:10.335Z,99782.17
2024-02-03T20:11:38.697Z,99778.34
2024-02-03T20:14:06.793Z,99774.55
2024-02-03T20:16:35.103Z,99773.31
2024-02-03T20:19:03.497Z,99784.84
2024-02-03T20:21:31.876Z,99781.35
2024-02-03T20:24:00.190Z,99780.86
2024-02-03T20:26:28.342Z,99777.10
2024-02-03T20:28:56.780Z,99769.95
2024-02-03T20:31:25.241Z,99767.17
2024-02-03T20:33:53.911Z,99767.75
2024-02-03T20:36:22.691Z,99768.66
2024-02-03T20:38:50.973Z,99764.85
2024-02-03T20:41:25.825Z,99767.48
2024-02-03T20:43:54.060Z,99776.08
2024-02-03T20:46:22.365Z,99784.83
2024-02-03T20:48:51.007Z,99786.87
2024-02-03T20:51:19.637Z,99778.69
2024-02-03T20:53:48.026Z,99776.17
2024-02-03T20:56:20.391Z,99771.94
2024-02-03T20:58:48.833Z,99769.70
2024-02-03T21:01:17.581Z,99768.66
2024-02-03T21:03:46.413Z,99767.98
2024-02-03T21:06:16.785Z,99761.49
2024-02-03T21:08:45.436Z,99757.71
2024-02-03T21:11:13.867Z,99756.48
2024-02-03T21:13:42.108Z,99754.91
2024-02-03T21:16:10.522Z,99751.23
2024-02-03T21:18:38.892Z,99743.27
2024-02-03T21:21:07.303Z,99749.99
2024-02-03T21:23:35.654Z,99745.96
2024-02-03T21:26:03.795Z,99750.14
2024-02-03T21:28:31.945Z,99761.80
2024-02-03T21:31:00.339Z,99756.78
2024-02-03T21:33:29.155Z,99760.63
2024-02-03T21:35:57.570Z,99750.69
2024-02-03T21:38:25.918Z,99744.02
2024-02-03T21:40:54.152Z,99738.89
2024-02-03T21:43:22.346Z,99737.08
2024-02-03T21:45:50.416Z,99735.41
2024-02-03T21:48:19.071Z,99738.09
2024-02-03T21:50:47.473Z,99738.36
2024-02-03T21:53:15.551Z,99742.34
2024-02-03T21:55:43.612Z,99741.78
2024-02-03T21:58:11.834Z,99740.99
2024-02-03T22:00:42.255Z,99743.42
2024-02-03T22:03:10.346Z,99740.65
2024-02-03T22:05:38.672Z,99745.38
2024-02-03T22:08:07.862Z,99734.58
2024-02-03T22:10:35.918Z,99734.80
2024-02-03T22:13:04.259Z,99733.60
2024-02-03T22:15:32.460Z,99726.29
2024-02-03T22:18:01.218Z,99725.64
2024-02-03T22:20:29.176Z,99721.05
2024-02-03T22:22:57.203Z,99731.61
2024-02-03T22:25:25.471Z,99736.43
2024-02-03T22:27:53.708Z,99740.39
2024-02-03T22:30:22.919Z,99739.54
2024-02-03T22:32:51.203Z,99736.58
2024-02-03T22:35:19.803Z,99737.73
2024-02-03T22:37:48.287Z,99734.15
2024-02-03T22:40:16.791Z,99727.33
2024-02-03T22:42:46.420Z,99736.20
2024-02-03T22:45:14.638Z,99739.20
2024-02-03T22:47:42.892Z,99733.55
2024-02-03T22:50:11.822Z,99726.17
2024-02-03T22:52:42.027Z,99727.52
2024-02-03T22:55:10.576Z,99721.99
2024-02-03T22:57:39.017Z,99724.73
2024-02-03T23:00:17.601Z,99728.31
2024-02-03T23:02:45.885Z,99723.29
2024-02-03T23:05:16.953Z,99723.93
2024-02-03T23:07:45.106Z,99713.20
2024-02-03T23:10:13.486Z,99711.48
2024-02-03T23:12:43.782Z,99712.55
2024-02-03T23:15:11.974Z,99714.27
2024-02-03T23:17:44.977Z,99710.06
2024-02-03T23:20:17.540Z,99701.59
2024-02-03T23:22:46.203Z,99700.52
2024-02-03T23:25:14.465Z,99691.38
2024-02-03T23:27:43.449Z,99689.27
2024-02-03T23:30:12.813Z,99685.20
2024-02-03T23:32:41.677Z,99689.40
2024-02-03T23:35:10.379Z,99693.03
2024-02-03T23:37:38.790Z,99694.59
2024-02-03T23:40:08.354Z,99694.69
2024-02-03T23:42:36.553Z,99700.70
2024-02-03T23:45:05.625Z,99698.02
2024-02-03T23:47:33.825Z,99707.91
2024-02-03T23:50:02.384Z,99707.67
2024-02-03T23:52:30.867Z,99707.55
2024-02-03T23:54:59.103Z,99710.02
2024-02-03T23:57:27.447Z,99712.59
2024-02-03T23:59:56.732Z,99716.00
